createdAt,value
2018-02-01T00:00:24.128Z,963.03
2018-02-01T00:01:24.174Z,963.02
2018-02-01T00:02:24.039Z,963.03
2018-02-01T00:03:23.929Z,963.02
2018-02-01T00:04:23.800Z,963.05
2018-02-01T00:05:23.755Z,962.98
2018-02-01T00:06:23.733Z,962.97
2018-02-01T00:07:23.567Z,962.91
2018-02-01T00:08:23.475Z,962.95
2018-02-01T00:09:23.387Z,962.90
2018-02-01T00:10:23.307Z,962.95
2018-02-01T00:11:23.272Z,962.91
2018-02-01T00:12:23.176Z,962.85
2018-02-01T00:13:23.081Z,962.82
2018-02-01T00:14:22.983Z,962.84
2018-02-01T00:15:24.491Z,962.84
2018-02-01T00:16:22.819Z,962.85
2018-02-01T00:17:22.774Z,962.82
2018-02-01T00:18:22.664Z,962.85
2018-02-01T00:19:22.580Z,962.86
2018-02-01T00:20:22.514Z,962.82
2018-02-01T00:21:22.432Z,962.83
2018-02-01T00:22:22.331Z,962.83
2018-02-01T00:23:22.247Z,962.77
2018-02-01T00:24:22.178Z,962.85
2018-02-01T00:25:22.090Z,962.74
2018-02-01T00:26:22.062Z,962.83
2018-02-01T00:27:21.925Z,962.80
2018-02-01T00:28:21.847Z,962.76
2018-02-01T00:29:21.761Z,962.82
2018-02-01T00:30:21.682Z,962.88
2018-02-01T00:31:21.597Z,962.78
2018-02-01T00:32:21.515Z,962.77
2018-02-01T00:33:21.458Z,962.74
2018-02-01T00:34:21.382Z,962.74
2018-02-01T00:35:21.269Z,962.78
2018-02-01T00:36:21.203Z,962.71
2018-02-01T00:37:21.141Z,962.70
2018-02-01T00:38:21.104Z,962.69
2018-02-01T00:39:20.980Z,962.68
2018-02-01T00:40:20.871Z,962.66
2018-02-01T00:41:20.790Z,962.68
2018-02-01T00:42:20.699Z,962.67
2018-02-01T00:43:20.656Z,962.67
2018-02-01T00:44:20.537Z,962.67
2018-02-01T00:45:20.455Z,962.67
2018-02-01T00:46:20.379Z,962.60
2018-02-01T00:47:20.285Z,962.65
2018-02-01T00:48:20.233Z,962.62
2018-02-01T00:49:20.152Z,962.63
2018-02-01T00:50:20.057Z,962.58
2018-02-01T00:51:19.968Z,962.61
2018-02-01T00:52:19.894Z,962.51
2018-02-01T00:53:19.812Z,962.56
2018-02-01T00:54:19.758Z,962.48
2018-02-01T00:55:19.693Z,962.55
2018-02-01T00:56:19.606Z,962.51
2018-02-01T00:57:19.505Z,962.49
2018-02-01T00:58:19.398Z,962.49
2018-02-01T00:59:19.313Z,962.49
2018-02-01T01:00:19.229Z,962.51
2018-02-01T01:01:19.210Z,962.49
2018-02-01T01:02:19.085Z,962.46
2018-02-01T01:03:18.979Z,962.44
2018-02-01T01:04:18.912Z,962.48
2018-02-01T01:05:18.825Z,962.48
2018-02-01T01:06:18.743Z,962.52
2018-02-01T01:07:18.684Z,962.51
2018-02-01T01:08:18.577Z,962.43
2018-02-01T01:09:18.540Z,962.47
2018-02-01T01:10:18.468Z,962.48
2018-02-01T01:11:18.337Z,962.46
2018-02-01T01:12:18.277Z,962.47
2018-02-01T01:13:18.166Z,962.50
2018-02-01T01:14:18.103Z,962.50
2018-02-01T01:15:18.003Z,962.50
2018-02-01T01:16:17.925Z,962.55
2018-02-01T01:17:17.885Z,962.52
2018-02-01T01:18:17.820Z,962.47
2018-02-01T01:19:17.677Z,962.47
2018-02-01T01:20:17.612Z,962.42
2018-02-01T01:21:17.532Z,962.45
2018-02-01T01:22:17.441Z,962.41
2018-02-01T01:23:17.380Z,962.40
2018-02-01T01:24:17.333Z,962.40
2018-02-01T01:25:17.291Z,962.35
2018-02-01T01:26:17.132Z,962.31
2018-02-01T01:27:17.117Z,962.34
2018-02-01T01:28:16.976Z,962.34
2018-02-01T01:29:16.908Z,962.37
2018-02-01T01:30:16.816Z,962.32
2018-02-01T01:31:16.729Z,962.33
2018-02-01T01:32:16.618Z,962.28
2018-02-01T01:33:16.566Z,962.27
2018-02-01T01:34:16.508Z,962.27
2018-02-01T01:35:16.465Z,962.29
2018-02-01T01:36:16.298Z,962.26
2018-02-01T01:37:16.242Z,962.26
2018-02-01T01:38:16.184Z,962.24
2018-02-01T01:39:16.075Z,962.26
2018-02-01T01:40:16.001Z,962.20
2018-02-01T01:41:15.954Z,962.17
2018-02-01T01:42:15.833Z,962.19
2018-02-01T01:43:15.729Z,962.19
2018-02-01T01:44:15.670Z,962.19
2018-02-01T01:45:15.652Z,962.18
2018-02-01T01:46:15.524Z,962.18
2018-02-01T01:47:15.447Z,962.16
2018-02-01T01:48:15.311Z,962.18
2018-02-01T01:49:15.285Z,962.13
2018-02-01T01:50:15.204Z,962.13
2018-02-01T01:51:15.178Z,962.08
2018-02-01T01:52:15.024Z,962.09
2018-02-01T01:53:14.921Z,962.04
2018-02-01T01:54:14.879Z,962.02
2018-02-01T01:55:14.804Z,962.01
2018-02-01T01:56:14.691Z,961.97
2018-02-01T01:57:14.656Z,961.98
2018-02-01T01:58:14.501Z,962.00
2018-02-01T01:59:14.485Z,962.00
2018-02-01T02:00:14.375Z,961.97
2018-02-01T02:01:14.279Z,961.91
2018-02-01T02:02:14.199Z,961.96
2018-02-01T02:03:14.162Z,961.95
2018-02-01T02:04:14.096Z,961.96
2018-02-01T02:05:14.010Z,962.00
2018-02-01T02:06:13.851Z,961.97
2018-02-01T02:07:13.773Z,961.97
2018-02-01T02:08:13.719Z,961.89
2018-02-01T02:09:13.633Z,961.87
2018-02-01T02:10:13.526Z,961.87
2018-02-01T02:11:13.507Z,961.88
2018-02-01T02:12:13.454Z,961.89
2018-02-01T02:13:13.297Z,961.90
2018-02-01T02:14:13.301Z,961.83
2018-02-01T02:15:13.169Z,961.82
2018-02-01T02:16:13.028Z,961.80
2018-02-01T02:17:13.021Z,961.77
2018-02-01T02:18:12.896Z,961.79
2018-02-01T02:19:12.812Z,961.82
2018-02-01T02:20:12.742Z,961.81
2018-02-01T02:21:12.648Z,961.73
2018-02-01T02:22:12.567Z,961.76
2018-02-01T02:23:12.466Z,961.73
2018-02-01T02:24:12.372Z,961.71
2018-02-01T02:25:12.321Z,961.74
2018-02-01T02:26:12.212Z,961.71
2018-02-01T02:27:12.133Z,961.66
2018-02-01T02:28:12.079Z,961.75
2018-02-01T02:29:11.972Z,961.70
2018-02-01T02:30:11.894Z,961.71
2018-02-01T02:31:11.833Z,961.66
2018-02-01T02:32:11.767Z,961.67
2018-02-01T02:33:11.640Z,961.69
2018-02-01T02:34:11.568Z,961.65
2018-02-01T02:35:11.483Z,961.66
2018-02-01T02:36:11.399Z,961.66
2018-02-01T02:37:11.344Z,961.68
2018-02-01T02:38:11.302Z,961.65
2018-02-01T02:39:11.172Z,961.78
2018-02-01T02:40:11.092Z,961.75
2018-02-01T02:41:11.012Z,961.71
2018-02-01T02:42:10.917Z,961.73
2018-02-01T02:43:10.916Z,961.72
2018-02-01T02:44:10.771Z,961.74
2018-02-01T02:45:10.696Z,961.67
2018-02-01T02:46:10.637Z,961.67
2018-02-01T02:47:10.567Z,961.72
2018-02-01T02:48:10.484Z,961.65
2018-02-01T02:49:10.361Z,961.67
2018-02-01T02:50:10.287Z,961.71
2018-02-01T02:51:10.231Z,961.69
2018-02-01T02:52:10.126Z,961.67
2018-02-01T02:53:10.011Z,961.66
2018-02-01T02:54:09.971Z,961.65
2018-02-01T02:55:09.908Z,961.74
2018-02-01T02:56:09.796Z,961.65
2018-02-01T02:57:09.728Z,961.68
2018-02-01T02:58:09.711Z,961.72
2018-02-01T02:59:09.564Z,961.74
2018-02-01T03:00:09.493Z,961.72
2018-02-01T03:01:09.358Z,961.75
2018-02-01T03:02:09.272Z,961.76
2018-02-01T03:03:09.205Z,961.68
2018-02-01T03:04:09.143Z,961.75
2018-02-01T03:05:09.055Z,961.79
2018-02-01T03:06:08.975Z,961.76
2018-02-01T03:07:08.875Z,961.80
2018-02-01T03:08:08.836Z,961.86
2018-02-01T03:09:08.705Z,961.91
2018-02-01T03:10:08.637Z,961.91
2018-02-01T03:11:08.578Z,961.91
2018-02-01T03:12:08.463Z,961.94
2018-02-01T03:13:08.429Z,961.96
2018-02-01T03:14:08.317Z,961.96
2018-02-01T03:15:08.211Z,961.89
2018-02-01T03:16:08.169Z,961.93
2018-02-01T03:17:08.049Z,961.97
2018-02-01T03:18:07.966Z,962.01
2018-02-01T03:19:07.902Z,962.02
2018-02-01T03:20:07.827Z,962.02
2018-02-01T03:21:07.786Z,962.01
2018-02-01T03:22:07.672Z,962.05
2018-02-01T03:23:07.637Z,962.07
2018-02-01T03:24:07.515Z,962.05
2018-02-01T03:25:07.395Z,962.08
2018-02-01T03:26:07.351Z,962.09
2018-02-01T03:27:07.352Z,962.12
2018-02-01T03:28:07.209Z,962.09
2018-02-01T03:29:07.158Z,962.09
2018-02-01T03:30:07.011Z,962.10
2018-02-01T03:31:06.966Z,962.13
2018-02-01T03:32:06.857Z,962.10
2018-02-01T03:33:06.754Z,962.12
2018-02-01T03:34:06.738Z,962.13
2018-02-01T03:35:06.671Z,962.15
2018-02-01T03:36:06.505Z,962.13
2018-02-01T03:37:06.434Z,962.11
2018-02-01T03:38:06.393Z,962.16
2018-02-01T03:39:06.250Z,962.18
2018-02-01T03:40:06.181Z,962.21
2018-02-01T03:41:06.168Z,962.18
2018-02-01T03:42:06.070Z,962.20
2018-02-01T03:43:05.948Z,962.21
2018-02-01T03:44:05.924Z,962.18
2018-02-01T03:45:05.823Z,962.21
2018-02-01T03:46:05.678Z,962.20
2018-02-01T03:47:05.619Z,962.23
2018-02-01T03:48:05.575Z,962.25
2018-02-01T03:49:05.519Z,962.27
2018-02-01T03:50:05.383Z,962.30
2018-02-01T03:51:05.313Z,962.29
2018-02-01T03:52:05.191Z,962.29
2018-02-01T03:53:05.129Z,962.29
2018-02-01T03:54:05.024Z,962.34
2018-02-01T03:55:05.003Z,962.35
2018-02-01T03:56:04.878Z,962.35
2018-02-01T03:57:04.808Z,962.33
2018-02-01T03:58:04.705Z,962.32
2018-02-01T03:59:04.631Z,962.32
2018-02-01T04:00:04.559Z,962.32
2018-02-01T04:01:04.448Z,962.35
2018-02-01T04:02:04.398Z,962.40
2018-02-01T04:03:04.284Z,962.42
2018-02-01T04:04:04.270Z,962.43
2018-02-01T04:05:04.144Z,962.42
2018-02-01T04:06:04.041Z,962.43
2018-02-01T04:07:03.999Z,962.44
2018-02-01T04:08:03.909Z,962.46
2018-02-01T04:09:03.801Z,962.44
2018-02-01T04:10:03.746Z,962.43
2018-02-01T04:11:03.663Z,962.48
2018-02-01T04:12:03.600Z,962.47
2018-02-01T04:13:03.471Z,962.49
2018-02-01T04:14:03.388Z,962.48
2018-02-01T04:15:03.341Z,962.51
2018-02-01T04:16:03.289Z,962.50
2018-02-01T04:17:03.211Z,962.48
2018-02-01T04:18:03.078Z,962.47
2018-02-01T04:19:03.008Z,962.50
2018-02-01T04:20:02.901Z,962.51
2018-02-01T04:21:02.862Z,962.51
2018-02-01T04:22:02.759Z,962.50
2018-02-01T04:23:02.649Z,962.52
2018-02-01T04:24:02.620Z,962.50
2018-02-01T04:25:02.512Z,962.49
2018-02-01T04:26:02.426Z,962.47
2018-02-01T04:27:02.339Z,962.49
2018-02-01T04:28:02.268Z,962.47
2018-02-01T04:29:02.162Z,962.44
2018-02-01T04:30:02.126Z,962.48
2018-02-01T04:31:01.993Z,962.48
2018-02-01T04:32:01.934Z,962.45
2018-02-01T04:33:01.836Z,962.44
2018-02-01T04:34:01.806Z,962.44
2018-02-01T04:35:01.681Z,962.44
2018-02-01T04:36:01.581Z,962.43
2018-02-01T04:37:01.506Z,962.43
2018-02-01T04:38:01.561Z,962.45
2018-02-01T04:39:01.382Z,962.46
2018-02-01T04:40:01.252Z,962.44
2018-02-01T04:41:01.205Z,962.44
2018-02-01T04:42:01.114Z,962.49
2018-02-01T04:43:01.055Z,962.49
2018-02-01T04:44:00.961Z,962.48
2018-02-01T04:45:00.873Z,962.51
2018-02-01T04:46:00.808Z,962.47
2018-02-01T04:47:00.751Z,962.47
2018-02-01T04:48:00.608Z,962.46
2018-02-01T04:49:00.515Z,962.50
2018-02-01T04:50:00.435Z,962.54
2018-02-01T04:51:00.351Z,962.53
2018-02-01T04:52:00.297Z,962.56
2018-02-01T04:53:00.208Z,962.57
2018-02-01T04:54:00.109Z,962.57
2018-02-01T04:55:00.098Z,962.50
2018-02-01T04:55:59.962Z,962.56
2018-02-01T04:56:59.879Z,962.53
2018-02-01T04:57:59.806Z,962.57
2018-02-01T04:58:59.738Z,962.54
2018-02-01T04:59:59.689Z,962.55
2018-02-01T05:00:59.569Z,962.56
2018-02-01T05:01:59.516Z,962.61
2018-02-01T05:02:59.422Z,962.60
2018-02-01T05:03:59.332Z,962.58
2018-02-01T05:04:59.263Z,962.56
2018-02-01T05:05:59.205Z,962.57
2018-02-01T05:06:59.097Z,962.56
2018-02-01T05:07:59.021Z,962.59
2018-02-01T05:08:58.881Z,962.54
2018-02-01T05:09:58.836Z,962.57
2018-02-01T05:10:58.747Z,962.55
2018-02-01T05:11:58.726Z,962.59
2018-02-01T05:12:58.634Z,962.57
2018-02-01T05:13:58.481Z,962.60
2018-02-01T05:14:58.401Z,962.55
2018-02-01T05:15:58.305Z,962.56
2018-02-01T05:16:58.276Z,962.56
2018-02-01T05:17:58.207Z,962.58
2018-02-01T05:18:58.098Z,962.52
2018-02-01T05:19:57.993Z,962.51
2018-02-01T05:20:57.893Z,962.50
2018-02-01T05:21:57.856Z,962.47
2018-02-01T05:22:57.755Z,962.46
2018-02-01T05:23:57.679Z,962.49
2018-02-01T05:24:57.647Z,962.50
2018-02-01T05:25:57.514Z,962.49
2018-02-01T05:26:57.502Z,962.53
2018-02-01T05:27:57.390Z,962.50
2018-02-01T05:28:57.270Z,962.50
2018-02-01T05:29:57.161Z,962.50
2018-02-01T05:30:57.109Z,962.46
2018-02-01T05:31:57.014Z,962.50
2018-02-01T05:32:56.934Z,962.51
2018-02-01T05:33:56.823Z,962.51
2018-02-01T05:34:56.743Z,962.55
2018-02-01T05:35:56.664Z,962.59
2018-02-01T05:36:56.581Z,962.60
2018-02-01T05:37:56.490Z,962.59
2018-02-01T05:38:56.413Z,962.56
2018-02-01T05:39:56.320Z,962.55
2018-02-01T05:40:56.310Z,962.57
2018-02-01T05:41:56.180Z,962.59
2018-02-01T05:42:56.132Z,962.57
2018-02-01T05:43:56.070Z,962.57
2018-02-01T05:44:55.916Z,962.59
2018-02-01T05:45:55.836Z,962.56
2018-02-01T05:46:55.756Z,962.63
2018-02-01T05:47:55.704Z,962.60
2018-02-01T05:48:55.602Z,962.62
2018-02-01T05:49:55.525Z,962.64
2018-02-01T05:50:55.435Z,962.61
2018-02-01T05:51:55.410Z,962.60
2018-02-01T05:52:55.394Z,962.63
2018-02-01T05:53:55.232Z,962.65
2018-02-01T05:54:55.084Z,962.66
2018-02-01T05:55:55.061Z,962.64
2018-02-01T05:56:54.951Z,962.66
2018-02-01T05:57:54.835Z,962.65
2018-02-01T05:58:54.757Z,962.63
2018-02-01T05:59:54.672Z,962.67
2018-02-01T06:00:54.602Z,962.60
2018-02-01T06:01:54.509Z,962.64
2018-02-01T06:02:54.426Z,962.63
2018-02-01T06:03:54.348Z,962.60
2018-02-01T06:04:54.284Z,962.62
2018-02-01T06:05:54.185Z,962.64
2018-02-01T06:06:54.113Z,962.62
2018-02-01T06:07:54.050Z,962.61
2018-02-01T06:08:53.932Z,962.66
2018-02-01T06:09:53.884Z,962.66
2018-02-01T06:10:53.807Z,962.67
2018-02-01T06:11:53.684Z,962.67
2018-02-01T06:12:53.640Z,962.71
2018-02-01T06:13:53.538Z,962.71
2018-02-01T06:14:53.477Z,962.69
2018-02-01T06:15:53.384Z,962.72
2018-02-01T06:16:53.272Z,962.68
2018-02-01T06:17:53.227Z,962.66
2018-02-01T06:18:53.144Z,962.65
2018-02-01T06:19:53.098Z,962.70
2018-02-01T06:20:52.980Z,962.71
2018-02-01T06:21:52.886Z,962.69
2018-02-01T06:22:52.776Z,962.70
2018-02-01T06:23:52.694Z,962.76
2018-02-01T06:24:52.640Z,962.74
2018-02-01T06:25:52.555Z,962.75
2018-02-01T06:26:52.520Z,962.74
2018-02-01T06:27:52.413Z,962.74
2018-02-01T06:28:52.431Z,962.73
2018-02-01T06:29:52.248Z,962.72
2018-02-01T06:30:52.138Z,962.72
2018-02-01T06:31:52.063Z,962.69
2018-02-01T06:32:52.009Z,962.67
2018-02-01T06:33:51.918Z,962.59
2018-02-01T06:34:51.870Z,962.56
2018-02-01T06:35:51.768Z,962.59
2018-02-01T06:36:51.663Z,962.60
2018-02-01T06:37:51.581Z,962.57
2018-02-01T06:38:51.557Z,962.57
2018-02-01T06:39:51.392Z,962.57
2018-02-01T06:40:51.310Z,962.52
2018-02-01T06:41:51.266Z,962.50
2018-02-01T06:42:51.182Z,962.53
2018-02-01T06:43:51.108Z,962.46
2018-02-01T06:44:51.012Z,962.52
2018-02-01T06:45:50.909Z,962.52
2018-02-01T06:46:50.921Z,962.51
2018-02-01T06:47:50.763Z,962.52
2018-02-01T06:48:50.629Z,962.52
2018-02-01T06:49:50.659Z,962.56
2018-02-01T06:50:50.566Z,962.56
2018-02-01T06:51:50.472Z,962.56
2018-02-01T06:52:50.363Z,962.58
2018-02-01T06:53:50.314Z,962.59
2018-02-01T06:54:50.174Z,962.60
2018-02-01T06:55:50.090Z,962.64
2018-02-01T06:56:49.985Z,962.62
2018-02-01T06:57:49.899Z,962.62
2018-02-01T06:58:49.852Z,962.66
2018-02-01T06:59:49.808Z,962.64
2018-02-01T07:00:49.683Z,962.64
2018-02-01T07:01:49.617Z,962.62
2018-02-01T07:02:49.529Z,962.62
2018-02-01T07:03:49.413Z,962.67
2018-02-01T07:04:49.405Z,962.65
2018-02-01T07:05:49.266Z,962.70
2018-02-01T07:06:49.168Z,962.72
2018-02-01T07:07:49.114Z,962.68
2018-02-01T07:08:49.063Z,962.69
2018-02-01T07:09:48.979Z,962.69
2018-02-01T07:10:48.926Z,962.68
2018-02-01T07:11:48.775Z,962.71
2018-02-01T07:12:48.661Z,962.77
2018-02-01T07:13:48.630Z,962.78
2018-02-01T07:14:48.497Z,962.79
2018-02-01T07:15:48.428Z,962.79
2018-02-01T07:16:48.418Z,962.79
2018-02-01T07:17:48.346Z,962.80
2018-02-01T07:18:48.231Z,962.77
2018-02-01T07:19:48.087Z,962.81
2018-02-01T07:20:48.053Z,962.83
2018-02-01T07:21:47.966Z,962.81
2018-02-01T07:22:47.903Z,962.80
2018-02-01T07:23:47.782Z,962.79
2018-02-01T07:24:47.792Z,962.82
2018-02-01T07:25:47.654Z,962.83
2018-02-01T07:26:47.585Z,962.80
2018-02-01T07:27:47.420Z,962.84
2018-02-01T07:28:47.399Z,962.84
2018-02-01T07:29:47.251Z,962.85
2018-02-01T07:30:47.288Z,962.84
2018-02-01T07:31:47.207Z,962.87
2018-02-01T07:32:47.024Z,962.85
2018-02-01T07:33:47.017Z,962.84
2018-02-01T07:34:46.864Z,962.85
2018-02-01T07:35:46.804Z,962.84
2018-02-01T07:36:46.677Z,962.82
2018-02-01T07:37:46.691Z,962.85
2018-02-01T07:38:46.530Z,962.84
2018-02-01T07:39:46.507Z,962.86
2018-02-01T07:40:46.353Z,962.83
2018-02-01T07:41:46.337Z,962.86
2018-02-01T07:42:46.288Z,962.90
2018-02-01T07:43:46.150Z,962.85
2018-02-01T07:44:46.117Z,962.86
2018-02-01T07:45:46.001Z,962.82
2018-02-01T07:46:45.843Z,962.85
2018-02-01T07:47:45.762Z,962.84
2018-02-01T07:48:45.721Z,962.81
2018-02-01T07:49:45.635Z,962.83
2018-02-01T07:50:45.555Z,962.83
2018-02-01T07:51:45.530Z,962.83
2018-02-01T07:52:45.346Z,962.84
2018-02-01T07:53:45.290Z,962.84
2018-02-01T07:54:45.226Z,962.85
2018-02-01T07:55:45.101Z,962.83
2018-02-01T07:56:45.083Z,962.81
2018-02-01T07:57:44.969Z,962.81
2018-02-01T07:58:44.923Z,962.75
2018-02-01T07:59:44.821Z,962.75
2018-02-01T08:00:44.712Z,962.75
2018-02-01T08:01:44.669Z,962.74
2018-02-01T08:02:44.587Z,962.75
2018-02-01T08:03:44.468Z,962.77
2018-02-01T08:04:44.406Z,962.76
2018-02-01T08:05:44.305Z,962.77
2018-02-01T08:06:44.334Z,962.79
2018-02-01T08:07:44.147Z,962.84
2018-02-01T08:08:44.134Z,962.82
2018-02-01T08:09:44.025Z,962.83
2018-02-01T08:10:43.869Z,962.82
2018-02-01T08:11:43.808Z,962.84
2018-02-01T08:12:43.790Z,962.89
2018-02-01T08:13:43.655Z,962.89
2018-02-01T08:14:43.645Z,962.91
2018-02-01T08:15:43.560Z,962.89
2018-02-01T08:16:43.437Z,962.94
2018-02-01T08:17:43.332Z,962.92
2018-02-01T08:18:43.217Z,962.97
2018-02-01T08:19:43.174Z,962.96
2018-02-01T08:20:43.089Z,962.97
2018-02-01T08:21:43.022Z,963.02
2018-02-01T08:22:42.927Z,963.04
2018-02-01T08:23:42.922Z,963.07
2018-02-01T08:24:42.756Z,963.09
2018-02-01T08:25:42.759Z,963.10
2018-02-01T08:26:42.610Z,963.08
2018-02-01T08:27:42.528Z,963.10
2018-02-01T08:28:42.396Z,963.12
2018-02-01T08:29:42.327Z,963.13
2018-02-01T08:30:42.220Z,963.13
2018-02-01T08:31:42.132Z,963.16
2018-02-01T08:32:42.063Z,963.17
2018-02-01T08:33:41.986Z,963.14
2018-02-01T08:34:41.947Z,963.15
2018-02-01T08:35:41.867Z,963.14
2018-02-01T08:36:41.732Z,963.06
2018-02-01T08:37:41.647Z,963.06
2018-02-01T08:38:41.588Z,963.07
2018-02-01T08:39:41.511Z,963.08
2018-02-01T08:40:41.451Z,963.07
2018-02-01T08:41:41.306Z,963.12
2018-02-01T08:42:41.298Z,963.12
2018-02-01T08:43:41.216Z,963.13
2018-02-01T08:44:41.113Z,963.16
2018-02-01T08:45:41.057Z,963.15
2018-02-01T08:46:40.912Z,963.25
2018-02-01T08:47:40.836Z,963.23
2018-02-01T08:48:40.789Z,963.26
2018-02-01T08:49:40.660Z,963.27
2018-02-01T08:50:40.588Z,963.28
2018-02-01T08:51:40.681Z,963.32
2018-02-01T08:52:40.495Z,963.31
2018-02-01T08:53:40.398Z,963.35
2018-02-01T08:54:40.269Z,963.37
2018-02-01T08:55:40.228Z,963.38
2018-02-01T08:56:40.080Z,963.36
2018-02-01T08:57:40.058Z,963.37
2018-02-01T08:58:39.950Z,963.32
2018-02-01T08:59:39.862Z,963.28
2018-02-01T09:00:39.822Z,963.25
2018-02-01T09:01:39.698Z,963.26
2018-02-01T09:02:39.681Z,963.25
2018-02-01T09:03:39.541Z,963.28
2018-02-01T09:04:39.465Z,963.27
2018-02-01T09:05:39.418Z,963.28
2018-02-01T09:06:39.284Z,963.26
2018-02-01T09:07:39.190Z,963.24
2018-02-01T09:08:39.175Z,963.26
2018-02-01T09:09:39.078Z,963.28
2018-02-01T09:10:38.963Z,963.32
2018-02-01T09:11:38.829Z,963.31
2018-02-01T09:12:38.803Z,963.34
2018-02-01T09:13:38.697Z,963.40
2018-02-01T09:14:38.686Z,963.41
2018-02-01T09:15:38.516Z,963.41
2018-02-01T09:16:38.531Z,963.41
2018-02-01T09:17:38.401Z,963.40
2018-02-01T09:18:38.282Z,963.40
2018-02-01T09:19:38.263Z,963.41
2018-02-01T09:20:38.165Z,963.43
2018-02-01T09:21:38.059Z,963.43
2018-02-01T09:22:38.005Z,963.49
2018-02-01T09:23:37.900Z,963.50
2018-02-01T09:24:37.867Z,963.52
2018-02-01T09:25:37.755Z,963.56
2018-02-01T09:26:37.697Z,963.58
2018-02-01T09:27:37.578Z,963.55
2018-02-01T09:28:37.475Z,963.58
2018-02-01T09:29:37.453Z,963.58
2018-02-01T09:30:37.299Z,963.57
2018-02-01T09:31:37.229Z,963.55
2018-02-01T09:32:37.172Z,963.53
2018-02-01T09:33:37.037Z,963.54
2018-02-01T09:34:37.016Z,963.50
2018-02-01T09:35:36.857Z,963.52
2018-02-01T09:36:36.830Z,963.52
2018-02-01T09:37:36.715Z,963.51
2018-02-01T09:38:36.665Z,963.52
2018-02-01T09:39:36.589Z,963.56
2018-02-01T09:40:36.492Z,963.59
2018-02-01T09:41:36.395Z,963.59
2018-02-01T09:42:36.314Z,963.58
2018-02-01T09:43:36.194Z,963.59
2018-02-01T09:44:36.179Z,963.64
2018-02-01T09:45:36.025Z,963.63
2018-02-01T09:46:35.954Z,963.63
2018-02-01T09:47:35.861Z,963.64
2018-02-01T09:48:35.796Z,963.63
2018-02-01T09:49:35.772Z,963.64
2018-02-01T09:50:35.704Z,963.68
2018-02-01T09:51:35.594Z,963.72
2018-02-01T09:52:35.518Z,963.74
2018-02-01T09:53:35.391Z,963.73
2018-02-01T09:54:35.378Z,963.70
2018-02-01T09:55:35.253Z,963.73
2018-02-01T09:56:35.134Z,963.71
2018-02-01T09:57:35.063Z,963.70
2018-02-01T09:58:35.013Z,963.67
2018-02-01T09:59:34.976Z,963.67
2018-02-01T10:00:34.876Z,963.67
2018-02-01T10:01:34.735Z,963.70
2018-02-01T10:02:34.697Z,963.72
2018-02-01T10:03:34.581Z,963.70
2018-02-01T10:04:34.456Z,963.70
2018-02-01T10:05:34.520Z,963.74
2018-02-01T10:06:34.380Z,963.73
2018-02-01T10:07:34.321Z,963.75
2018-02-01T10:08:34.123Z,963.75
2018-02-01T10:09:34.076Z,963.72
2018-02-01T10:10:34.022Z,963.73
2018-02-01T10:11:33.953Z,963.76
2018-02-01T10:12:33.894Z,963.72
2018-02-01T10:13:33.769Z,963.79
2018-02-01T10:14:33.655Z,963.78
2018-02-01T10:15:33.603Z,963.82
2018-02-01T10:16:33.498Z,963.81
2018-02-01T10:17:33.441Z,963.82
2018-02-01T10:18:33.380Z,963.83
2018-02-01T10:19:33.244Z,963.79
2018-02-01T10:20:33.164Z,963.81
2018-02-01T10:21:33.175Z,963.81
2018-02-01T10:22:33.005Z,963.81
2018-02-01T10:23:32.973Z,963.83
2018-02-01T10:24:32.865Z,963.82
2018-02-01T10:25:32.801Z,963.83
2018-02-01T10:26:32.664Z,963.79
2018-02-01T10:27:32.589Z,963.83
2018-02-01T10:28:32.504Z,963.85
2018-02-01T10:29:32.448Z,963.83
2018-02-01T10:30:32.357Z,963.84
2018-02-01T10:31:32.265Z,963.80
2018-02-01T10:32:32.259Z,963.79
2018-02-01T10:33:32.072Z,963.78
2018-02-01T10:34:32.019Z,963.77
2018-02-01T10:35:31.932Z,963.76
2018-02-01T10:36:31.830Z,963.74
2018-02-01T10:37:31.765Z,963.79
2018-02-01T10:38:31.669Z,963.77
2018-02-01T10:39:31.614Z,963.80
2018-02-01T10:40:31.514Z,963.79
2018-02-01T10:41:31.447Z,963.74
2018-02-01T10:42:31.376Z,963.76
2018-02-01T10:43:31.326Z,963.70
2018-02-01T10:44:31.221Z,963.69
2018-02-01T10:45:31.105Z,963.71
2018-02-01T10:46:31.008Z,963.71
2018-02-01T10:47:30.984Z,963.71
2018-02-01T10:48:30.898Z,963.68
2018-02-01T10:49:30.833Z,963.69
2018-02-01T10:50:30.689Z,963.71
2018-02-01T10:51:30.621Z,963.73
2018-02-01T10:52:30.531Z,963.72
2018-02-01T10:53:30.511Z,963.72
2018-02-01T10:54:30.360Z,963.70
2018-02-01T10:55:30.330Z,963.72
2018-02-01T10:56:30.236Z,963.74
2018-02-01T10:57:30.180Z,963.74
2018-02-01T10:58:30.080Z,963.81
2018-02-01T10:59:29.956Z,963.77
2018-02-01T11:00:29.925Z,963.75
2018-02-01T11:01:29.786Z,963.80
2018-02-01T11:02:29.716Z,963.77
2018-02-01T11:03:29.668Z,963.77
2018-02-01T11:04:29.577Z,963.74
2018-02-01T11:05:29.468Z,963.77
2018-02-01T11:06:29.408Z,963.79
2018-02-01T11:07:29.334Z,963.72
2018-02-01T11:08:29.199Z,963.80
2018-02-01T11:09:29.150Z,963.75
2018-02-01T11:10:29.058Z,963.70
2018-02-01T11:11:28.958Z,963.70
2018-02-01T11:12:28.927Z,963.70
2018-02-01T11:13:28.864Z,963.68
2018-02-01T11:14:28.743Z,963.68
2018-02-01T11:15:28.611Z,963.75
2018-02-01T11:16:28.577Z,963.77
2018-02-01T11:17:28.478Z,963.75
2018-02-01T11:18:28.435Z,963.79
2018-02-01T11:19:28.435Z,963.82
2018-02-01T11:20:28.283Z,963.79
2018-02-01T11:21:28.148Z,963.83
2018-02-01T11:22:28.099Z,963.81
2018-02-01T11:23:27.998Z,963.86
2018-02-01T11:24:27.890Z,963.87
2018-02-01T11:25:27.843Z,963.80
2018-02-01T11:26:27.825Z,963.73
2018-02-01T11:27:27.673Z,963.66
2018-02-01T11:28:27.604Z,963.63
2018-02-01T11:29:27.499Z,963.64
2018-02-01T11:30:27.527Z,963.61
2018-02-01T11:31:27.295Z,963.61
2018-02-01T11:32:27.281Z,963.63
2018-02-01T11:33:27.171Z,963.68
2018-02-01T11:34:27.094Z,963.67
2018-02-01T11:35:27.015Z,963.70
2018-02-01T11:36:26.945Z,963.71
2018-02-01T11:37:26.858Z,963.70
2018-02-01T11:38:26.819Z,963.75
2018-02-01T11:39:26.721Z,963.80
2018-02-01T11:40:26.578Z,963.74
2018-02-01T11:41:26.541Z,963.75
2018-02-01T11:42:26.403Z,963.74
2018-02-01T11:43:26.354Z,963.75
2018-02-01T11:44:26.274Z,963.79
2018-02-01T11:45:26.209Z,963.83
2018-02-01T11:46:26.051Z,963.83
2018-02-01T11:47:26.015Z,963.83
2018-02-01T11:48:25.908Z,963.75
2018-02-01T11:49:25.894Z,963.80
2018-02-01T11:50:25.788Z,963.80
2018-02-01T11:51:25.654Z,963.82
2018-02-01T11:52:25.575Z,963.83
2018-02-01T11:53:25.487Z,963.81
2018-02-01T11:54:25.409Z,963.82
2018-02-01T11:55:25.320Z,963.76
2018-02-01T11:56:25.343Z,963.80
2018-02-01T11:57:25.147Z,963.78
2018-02-01T11:58:25.106Z,963.74
2018-02-01T11:59:25.029Z,963.73
2018-02-01T12:00:24.891Z,963.72
2018-02-01T12:01:24.828Z,963.67
2018-02-01T12:02:24.760Z,963.70
2018-02-01T12:03:24.669Z,963.70
2018-02-01T12:04:24.631Z,963.68
2018-02-01T12:05:24.503Z,963.68
2018-02-01T12:06:24.482Z,963.68
2018-02-01T12:07:24.381Z,963.71
2018-02-01T12:08:24.311Z,963.71
2018-02-01T12:09:24.178Z,963.67
2018-02-01T12:10:24.153Z,963.75
2018-02-01T12:11:24.019Z,963.73
2018-02-01T12:12:23.917Z,963.74
2018-02-01T12:13:23.810Z,963.74
2018-02-01T12:14:23.787Z,963.74
2018-02-01T12:15:23.705Z,963.79
2018-02-01T12:16:23.577Z,963.77
2018-02-01T12:17:23.527Z,963.77
2018-02-01T12:18:23.409Z,963.81
2018-02-01T12:19:23.456Z,963.84
2018-02-01T12:20:23.313Z,963.85
2018-02-01T12:21:23.311Z,963.87
2018-02-01T12:22:23.161Z,963.89
2018-02-01T12:23:22.990Z,963.96
2018-02-01T12:24:22.907Z,963.90
2018-02-01T12:25:22.846Z,963.93
2018-02-01T12:26:22.839Z,963.88
2018-02-01T12:27:22.741Z,963.90